Time;durP1;ratioP1;P1;durP2;ratioP2;P2;SDS_P1;SDS_P2;PMS_P1;PMS_P2;Temp;Humidity;BMP_temperature;BMP_pressure;BME280_temperature;BME280_humidity;BME280_pressure;Samples;Min_cycle;Max_cycle;Signal;HPM_P1;HPM_P2
2023/04/14 00:01:05;;;;;;;0.17;0.17;;;14.90;99.90;;;;;;4959962;28;20237;-76
2023/04/14 00:03:31;;;;;;;0.10;0.10;;;14.90;99.90;;;;;;4946007;28;20529;-74
2023/04/14 00:05:56;;;;;;;0.15;0.15;;;14.90;99.90;;;;;;4967686;28;20121;-82
2023/04/14 00:08:22;;;;;;;0.20;0.20;;;14.80;99.90;;;;;;4959228;28;20031;-76
2023/04/14 00:10:48;;;;;;;0.10;0.10;;;14.70;99.90;;;;;;4960937;28;20030;-74
2023/04/14 00:13:14;;;;;;;0.10;0.10;;;14.50;99.90;;;;;;4959776;28;20035;-78
2023/04/14 00:15:41;;;;;;;0.10;0.10;;;14.40;99.90;;;;;;4961889;28;20074;-74
2023/04/14 00:18:08;;;;;;;0.10;0.10;;;14.30;99.90;;;;;;4968689;28;20581;-74
2023/04/14 00:20:34;;;;;;;0.10;0.10;;;14.30;99.90;;;;;;4958839;28;20079;-74
2023/04/14 00:23:00;;;;;;;0.10;0.10;;;14.10;99.90;;;;;;4959431;28;20081;-75
2023/04/14 00:25:25;;;;;;;0.10;0.10;;;14.10;99.90;;;;;;4941624;28;20026;-77
2023/04/14 00:27:51;;;;;;;0.10;0.10;;;13.90;99.90;;;;;;4959733;28;20268;-83
2023/04/14 00:30:17;;;;;;;0.10;0.10;;;13.90;99.90;;;;;;4959795;28;20077;-79
2023/04/14 00:32:42;;;;;;;0.10;0.10;;;13.90;99.90;;;;;;4961086;28;20038;-76
2023/04/14 00:35:10;;;;;;;0.10;0.10;;;13.90;99.90;;;;;;4968112;28;20041;-76
2023/04/14 00:37:36;;;;;;;0.08;0.08;;;13.80;99.90;;;;;;4967562;28;20023;-74
2023/04/14 00:40:02;;;;;;;0.10;0.10;;;13.90;99.90;;;;;;4960671;28;20019;-80
2023/04/14 00:42:28;;;;;;;0.10;0.10;;;13.90;99.90;;;;;;4960160;28;20049;-81
2023/04/14 00:44:54;;;;;;;0.10;0.10;;;14.00;99.90;;;;;;4959024;28;20023;-75
2023/04/14 00:47:21;;;;;;;0.10;0.10;;;14.00;99.90;;;;;;4960664;28;20035;-76
2023/04/14 00:49:47;;;;;;;0.10;0.10;;;14.00;99.90;;;;;;4948656;28;20045;-74
2023/04/14 00:52:14;;;;;;;0.13;0.13;;;14.00;99.90;;;;;;4959512;28;20038;-75
2023/04/14 00:54:40;;;;;;;1.00;1.00;;;14.00;99.90;;;;;;4943682;28;20031;-75
2023/04/14 00:57:06;;;;;;;0.20;0.20;;;13.80;99.90;;;;;;4975864;28;20029;-74
2023/04/14 00:59:32;;;;;;;0.10;0.10;;;13.90;99.90;;;;;;4977263;28;20230;-74
2023/04/14 01:01:59;;;;;;;0.10;0.10;;;13.90;99.90;;;;;;4974221;28;20041;-74
2023/04/14 01:04:26;;;;;;;0.10;0.10;;;13.90;99.90;;;;;;4974343;28;20047;-74
2023/04/14 01:06:53;;;;;;;3.58;3.38;;;13.90;99.90;;;;;;4959599;28;20494;-75
2023/04/14 01:09:19;;;;;;;0.10;0.10;;;13.90;99.90;;;;;;4946560;28;20344;-75
2023/04/14 01:11:47;;;;;;;0.10;0.10;;;13.90;99.90;;;;;;4973689;28;20027;-78
2023/04/14 01:14:23;;;;;;;0.10;0.10;;;13.80;99.90;;;;;;4976339;28;20145;-74
2023/04/14 01:16:52;;;;;;;0.10;0.10;;;13.80;99.90;;;;;;4983469;28;20018;-75
2023/04/14 01:19:24;;;;;;;0.00;0.00;;;13.80;99.90;;;;;;4982413;28;20043;-74
2023/04/14 01:21:56;;;;;;;0.00;0.00;;;13.70;99.90;;;;;;4959220;28;20341;-75
2023/04/14 01:24:59;;;;;;;0.10;0.10;;;13.70;99.90;;;;;;4963908;28;20226;-74
2023/04/14 01:28:03;;;;;;;0.10;0.10;;;13.70;99.90;;;;;;4974419;28;20379;-76
2023/04/14 01:30:58;;;;;;;0.10;0.10;;;13.70;99.90;;;;;;4964713;28;20082;-75
2023/04/14 01:33:25;;;;;;;;;;;13.70;99.90;;;;;;4968879;28;20166;-84
2023/04/14 01:35:55;;;;;;;0.10;0.10;;;13.70;99.90;;;;;;4962439;28;19916;-79
2023/04/14 01:38:26;;;;;;;0.10;0.10;;;13.70;99.90;;;;;;4962367;28;20027;-75
2023/04/14 01:40:58;;;;;;;0.20;0.20;;;13.70;99.90;;;;;;4963065;28;20041;-76
2023/04/14 01:43:30;;;;;;;0.10;0.10;;;13.60;99.90;;;;;;4980191;28;20058;-74
2023/04/14 01:46:02;;;;;;;0.10;0.10;;;13.60;99.90;;;;;;4983012;28;20022;-74
2023/04/14 01:48:29;;;;;;;0.10;0.10;;;13.40;99.90;;;;;;4975740;28;20394;-74
2023/04/14 01:50:57;;;;;;;0.10;0.10;;;13.20;99.90;;;;;;4970150;28;20409;-74
2023/04/14 01:56:11;;;;;;;0.10;0.10;;;12.80;99.90;;;;;;4963423;28;20371;-76
2023/04/14 01:58:39;;;;;;;0.00;0.00;;;12.70;99.90;;;;;;4964966;28;20077;-74
2023/04/14 02:01:06;;;;;;;0.00;0.00;;;12.60;99.90;;;;;;4965333;28;20034;-74
2023/04/14 02:03:33;;;;;;;0.10;0.10;;;12.40;99.90;;;;;;4966415;28;20296;-74
2023/04/14 02:06:03;;;;;;;0.00;0.00;;;12.20;99.90;;;;;;4969978;28;20050;-75
2023/04/14 02:08:31;;;;;;;0.00;0.00;;;12.20;99.90;;;;;;4966226;28;20022;-76
2023/04/14 02:11:00;;;;;;;0.00;0.00;;;12.20;99.90;;;;;;4967656;28;20038;-76
2023/04/14 02:13:27;;;;;;;0.10;0.10;;;12.10;99.90;;;;;;4949651;28;20054;-74
2023/04/14 02:15:54;;;;;;;0.00;0.00;;;11.90;99.90;;;;;;4969162;28;20604;-73
2023/04/14 02:18:21;;;;;;;0.10;0.10;;;11.80;99.90;;;;;;4950106;28;20185;-75
2023/04/14 02:20:51;;;;;;;0.10;0.10;;;11.60;99.90;;;;;;4964812;28;20039;-75
2023/04/14 02:23:17;;;;;;;0.10;0.10;;;11.50;99.90;;;;;;4964166;28;20087;-74
2023/04/14 02:26:10;;;;;;;0.08;0.08;;;11.20;99.90;;;;;;4964793;28;20463;-73
2023/04/14 02:28:44;;;;;;;0.00;0.00;;;10.70;99.90;;;;;;4945846;28;20112;-73
2023/04/14 02:31:15;;;;;;;0.00;0.00;;;10.30;99.90;;;;;;4963300;28;20069;-74
2023/04/14 02:33:43;;;;;;;0.00;0.00;;;9.80;99.90;;;;;;4945765;28;20503;-73
2023/04/14 02:36:12;;;;;;;0.00;0.00;;;9.60;99.90;;;;;;4946318;28;20654;-74
2023/04/14 02:38:45;;;;;;;0.00;0.00;;;9.20;99.90;;;;;;4963890;28;20122;-74
2023/04/14 02:41:34;;;;;;;0.00;0.00;;;9.10;99.90;;;;;;4963988;28;20126;-74
2023/04/14 02:44:22;;;;;;;0.00;0.00;;;9.30;99.90;;;;;;4962322;28;20252;-74
2023/04/14 02:46:57;;;;;;;0.00;0.00;;;8.90;99.90;;;;;;4946668;28;20030;-74
2023/04/14 02:49:23;;;;;;;0.00;0.00;;;8.80;99.90;;;;;;4963508;28;20019;-74
2023/04/14 02:51:53;;;;;;;0.00;0.00;;;8.70;99.90;;;;;;4964791;28;20269;-74
2023/04/14 02:54:19;;;;;;;0.00;0.00;;;;;;;;;;4945865;28;20030;-74
2023/04/14 02:56:46;;;;;;;0.00;0.00;;;8.70;99.90;;;;;;4946367;28;20409;-74
2023/04/14 02:59:12;;;;;;;0.00;0.00;;;;;;;;;;4945452;28;20030;-74
2023/04/14 03:01:39;;;;;;;0.03;0.03;;;;;;;;;;4962672;28;20072;-74
2023/04/14 03:04:06;;;;;;;0.03;0.03;;;8.70;99.90;;;;;;4963676;28;20109;-74
2023/04/14 03:06:32;;;;;;;0.00;0.00;;;8.60;99.90;;;;;;4949085;28;20657;-74
2023/04/14 03:08:59;;;;;;;0.00;0.00;;;8.60;99.90;;;;;;4967113;28;20046;-74
2023/04/14 03:11:26;;;;;;;0.00;0.00;;;8.60;99.90;;;;;;4966803;28;20446;-73
2023/04/14 03:13:53;;;;;;;0.08;0.08;;;8.60;99.90;;;;;;4951616;28;20239;-74
2023/04/14 03:16:24;;;;;;;0.10;0.10;;;8.60;99.90;;;;;;4950333;28;20043;-73
2023/04/14 03:18:51;;;;;;;0.00;0.00;;;8.60;99.90;;;;;;4951116;28;20035;-74
2023/04/14 03:21:20;;;;;;;0.00;0.00;;;8.70;99.90;;;;;;4952142;28;20046;-74
2023/04/14 03:23:50;;;;;;;0.10;0.10;;;8.70;99.90;;;;;;4949871;28;20281;-74
2023/04/14 03:26:20;;;;;;;0.10;0.10;;;8.60;99.90;;;;;;4966801;28;20023;-74
2023/04/14 03:28:49;;;;;;;0.10;0.10;;;8.60;99.90;;;;;;4948422;28;20042;-74
2023/04/14 03:31:17;;;;;;;0.00;0.00;;;8.90;99.90;;;;;;4964368;28;20122;-73
2023/04/14 03:33:45;;;;;;;0.10;0.10;;;8.80;99.90;;;;;;4948274;28;20035;-75
2023/04/14 03:36:15;;;;;;;0.10;0.10;;;8.60;99.90;;;;;;4970159;28;20034;-75
2023/04/14 03:38:41;;;;;;;0.00;0.00;;;8.50;99.90;;;;;;4967309;28;20177;-74
2023/04/14 03:41:08;;;;;;;0.00;0.00;;;8.50;99.90;;;;;;4964034;28;20529;-76
2023/04/14 03:43:35;;;;;;;0.00;0.00;;;8.60;99.90;;;;;;4965371;28;20023;-74
2023/04/14 03:46:04;;;;;;;0.08;0.08;;;8.50;99.90;;;;;;4966422;28;20213;-74
2023/04/14 03:48:35;;;;;;;0.00;0.00;;;9.00;99.90;;;;;;4950076;28;20316;-75
2023/04/14 03:51:05;;;;;;;0.00;0.00;;;8.50;99.90;;;;;;4954525;28;20049;-73
2023/04/14 03:53:34;;;;;;;0.00;0.00;;;8.50;99.90;;;;;;4974214;28;20066;-73
2023/04/14 03:56:03;;;;;;;0.00;0.00;;;8.00;99.90;;;;;;4955117;28;20031;-75
2023/04/14 03:58:31;;;;;;;0.40;0.40;;;8.30;99.90;;;;;;4971029;28;20223;-74
2023/04/14 04:01:01;;;;;;;4.07;3.95;;;8.10;99.90;;;;;;4971112;28;20023;-74
2023/04/14 04:03:29;;;;;;;11.43;10.50;;;8.10;99.90;;;;;;4954142;28;20030;-74
2023/04/14 04:05:55;;;;;;;0.10;0.10;;;8.00;99.90;;;;;;4953121;28;20213;-77
2023/04/14 04:08:24;;;;;;;0.00;0.00;;;7.90;99.90;;;;;;4968429;28;20110;-75
2023/04/14 04:10:51;;;;;;;0.00;0.00;;;7.90;99.90;;;;;;4968660;28;20070;-74
2023/04/14 04:13:24;;;;;;;0.00;0.00;;;8.00;99.90;;;;;;4953563;28;20034;-74
2023/04/14 04:15:50;;;;;;;0.00;0.00;;;;;;;;;;4972308;28;20027;-74
2023/04/14 04:18:18;;;;;;;0.00;0.00;;;8.10;99.90;;;;;;4971032;28;20027;-74
2023/04/14 04:20:45;;;;;;;0.00;0.00;;;8.10;99.90;;;;;;4969762;28;20126;-74
2023/04/14 04:23:12;;;;;;;0.00;0.00;;;;;;;;;;4946518;28;20045;-73
2023/04/14 04:25:39;;;;;;;0.00;0.00;;;8.20;99.90;;;;;;4965515;28;20085;-74
2023/04/14 04:28:06;;;;;;;0.00;0.00;;;;;;;;;;4962907;28;20038;-73
2023/04/14 04:30:35;;;;;;;0.00;0.00;;;8.20;99.90;;;;;;4963395;28;20085;-74
2023/04/14 04:33:02;;;;;;;0.00;0.00;;;8.20;99.90;;;;;;4967298;28;20054;-73
2023/04/14 04:35:28;;;;;;;0.00;0.00;;;8.20;99.90;;;;;;4966780;28;20624;-71
2023/04/14 04:37:57;;;;;;;0.00;0.00;;;8.20;99.90;;;;;;4966843;28;20474;-74
2023/04/14 04:40:23;;;;;;;0.00;0.00;;;8.10;99.90;;;;;;4967357;28;20027;-74
2023/04/14 04:42:49;;;;;;;0.05;0.05;;;;;;;;;;4968464;28;20154;-75
2023/04/14 04:45:54;;;;;;;0.00;0.00;;;8.00;99.90;;;;;;4964509;28;20545;-73
2023/04/14 04:48:20;;;;;;;0.10;0.10;;;;;;;;;;4851062;29;20076;-73
2023/04/14 04:50:46;;;;;;;0.00;0.00;;;;;;;;;;4866066;29;20056;-74
2023/04/14 04:53:12;;;;;;;0.00;0.00;;;;;;;;;;4866708;29;20169;-75
2023/04/14 04:55:40;;;;;;;0.10;0.10;;;8.10;99.90;;;;;;4866923;29;20033;-74
2023/04/14 04:58:07;;;;;;;0.00;0.00;;;;;;;;;;4866536;29;20497;-73
2023/04/14 05:00:33;;;;;;;0.00;0.00;;;;;;;;;;4865259;29;20220;-74
2023/04/14 05:02:58;;;;;;;0.10;0.10;;;8.30;99.90;;;;;;4866549;29;20051;-73
2023/04/14 05:05:24;;;;;;;0.00;0.00;;;8.40;99.90;;;;;;4868507;29;20034;-73
2023/04/14 05:07:50;;;;;;;0.00;0.00;;;8.40;99.90;;;;;;4863172;29;20049;-74
2023/04/14 05:10:16;;;;;;;0.10;0.10;;;8.40;99.90;;;;;;4876701;29;20022;-73
2023/04/14 05:12:42;;;;;;;0.00;0.00;;;8.50;99.90;;;;;;4871660;29;20472;-74
2023/04/14 05:15:08;;;;;;;0.00;0.00;;;8.50;99.90;;;;;;4862194;29;20683;-75
2023/04/14 05:17:35;;;;;;;0.00;0.00;;;8.50;99.90;;;;;;4872870;29;20332;-78
2023/04/14 05:20:02;;;;;;;0.00;0.00;;;8.40;99.90;;;;;;4871787;29;20209;-74
2023/04/14 05:22:28;;;;;;;0.00;0.00;;;8.40;99.90;;;;;;4878265;29;20033;-74
2023/04/14 05:24:54;;;;;;;0.00;0.00;;;8.50;99.90;;;;;;4902905;28;20035;-74
2023/04/14 05:27:20;;;;;;;0.00;0.00;;;8.50;99.90;;;;;;4970967;28;20122;-73
2023/04/14 05:29:46;;;;;;;0.00;0.00;;;8.60;99.90;;;;;;4973422;28;20023;-73
2023/04/14 05:32:13;;;;;;;0.57;0.57;;;8.60;99.90;;;;;;4975736;28;20035;-73
2023/04/14 05:34:40;;;;;;;0.00;0.00;;;8.70;99.90;;;;;;4969313;28;20027;-73
2023/04/14 05:37:05;;;;;;;0.00;0.00;;;8.70;99.90;;;;;;4974036;28;20023;-74
2023/04/14 05:39:31;;;;;;;0.05;0.05;;;8.70;99.90;;;;;;4975764;28;20062;-73
2023/04/14 05:41:58;;;;;;;0.10;0.10;;;8.60;99.90;;;;;;4974343;28;20106;-74
2023/04/14 05:44:24;;;;;;;0.00;0.00;;;8.60;99.90;;;;;;4975765;28;20082;-73
2023/04/14 05:46:50;;;;;;;0.00;0.00;;;8.50;99.90;;;;;;4976650;28;20085;-73
2023/04/14 05:49:16;;;;;;;0.00;0.00;;;8.50;99.90;;;;;;4970973;28;20039;-73
2023/04/14 05:51:42;;;;;;;0.00;0.00;;;8.50;99.90;;;;;;4973816;28;20296;-75
2023/04/14 05:54:08;;;;;;;0.05;0.05;;;8.60;99.90;;;;;;4974708;28;20560;-73
2023/04/14 05:56:33;;;;;;;0.00;0.00;;;8.60;99.90;;;;;;4975548;28;20058;-73
2023/04/14 05:59:00;;;;;;;0.00;0.00;;;8.60;99.90;;;;;;4970885;28;20038;-73
2023/04/14 06:01:26;;;;;;;0.00;0.00;;;8.50;99.90;;;;;;4970502;28;20275;-73
2023/04/14 06:03:52;;;;;;;0.00;0.00;;;8.60;99.90;;;;;;4973259;28;20042;-73
2023/04/14 06:06:19;;;;;;;0.00;0.00;;;8.60;99.90;;;;;;4973874;28;20023;-73
2023/04/14 06:08:45;;;;;;;0.63;0.63;;;8.60;99.90;;;;;;4963889;28;20493;-72
2023/04/14 06:11:10;;;;;;;0.00;0.00;;;8.70;99.90;;;;;;4979740;28;20047;-73
2023/04/14 06:13:36;;;;;;;0.00;0.00;;;8.80;99.90;;;;;;4979401;28;20050;-73
2023/04/14 06:16:02;;;;;;;0.00;0.00;;;8.90;99.90;;;;;;4977353;28;20054;-73
2023/04/14 06:18:28;;;;;;;0.00;0.00;;;9.00;99.90;;;;;;4974130;28;20114;-73
2023/04/14 06:20:53;;;;;;;0.03;0.03;;;9.00;99.90;;;;;;4970496;28;20125;-74
2023/04/14 06:23:20;;;;;;;0.10;0.10;;;9.10;99.90;;;;;;4974955;28;20328;-73
2023/04/14 06:25:46;;;;;;;0.03;0.03;;;9.20;99.90;;;;;;4972833;28;20022;-73
2023/04/14 06:28:12;;;;;;;0.10;0.10;;;9.30;99.90;;;;;;4976539;28;20030;-74
2023/04/14 06:30:38;;;;;;;0.00;0.00;;;9.40;99.90;;;;;;4950966;28;20023;-73
2023/04/14 06:33:03;;;;;;;0.10;0.10;;;9.40;99.90;;;;;;4968018;28;20537;-74
2023/04/14 06:35:30;;;;;;;0.00;0.00;;;9.50;99.90;;;;;;4967947;28;20354;-72
2023/04/14 06:37:56;;;;;;;0.00;0.00;;;9.50;99.90;;;;;;4967667;28;20019;-73
2023/04/14 06:40:22;;;;;;;0.00;0.00;;;9.40;99.90;;;;;;4967192;28;20023;-73
2023/04/14 06:42:48;;;;;;;0.10;0.10;;;9.40;99.90;;;;;;4967303;28;20705;-75
2023/04/14 06:45:14;;;;;;;0.00;0.00;;;9.40;99.90;;;;;;4965418;28;20030;-73
2023/04/14 06:47:39;;;;;;;0.10;0.10;;;9.30;99.90;;;;;;4946934;28;20059;-74
2023/04/14 06:50:06;;;;;;;0.73;0.73;;;9.10;99.90;;;;;;4965383;28;20027;-76
2023/04/14 06:52:31;;;;;;;0.00;0.00;;;9.00;99.90;;;;;;4966304;28;20118;-74
2023/04/14 06:54:57;;;;;;;0.00;0.00;;;8.90;99.90;;;;;;4966087;28;20055;-75
2023/04/14 06:57:24;;;;;;;0.00;0.00;;;8.80;99.90;;;;;;4966184;28;20272;-74
2023/04/14 06:59:50;;;;;;;0.10;0.10;;;8.80;99.90;;;;;;4966349;28;20638;-74
2023/04/14 07:02:15;;;;;;;0.00;0.00;;;8.90;99.90;;;;;;4966066;28;20066;-75
2023/04/14 07:04:41;;;;;;;0.00;0.00;;;8.90;99.90;;;;;;4953589;28;20023;-74
2023/04/14 07:07:07;;;;;;;0.00;0.00;;;8.90;99.90;;;;;;4972445;28;20019;-73
2023/04/14 07:09:33;;;;;;;0.10;0.10;;;8.80;99.90;;;;;;4977983;28;20405;-74
2023/04/14 07:12:00;;;;;;;0.10;0.10;;;8.90;99.90;;;;;;4978204;28;20034;-73
2023/04/14 07:14:26;;;;;;;0.00;0.00;;;9.00;99.90;;;;;;4966377;28;20474;-73
2023/04/14 07:16:52;;;;;;;0.00;0.00;;;9.10;99.90;;;;;;4968517;28;20059;-74
2023/04/14 07:19:18;;;;;;;0.00;0.00;;;9.20;99.90;;;;;;4968012;28;20039;-75
2023/04/14 07:21:45;;;;;;;0.08;0.08;;;9.20;99.90;;;;;;4975274;28;20034;-74
2023/04/14 07:24:11;;;;;;;0.00;0.00;;;9.30;99.90;;;;;;4977913;28;20054;-73
2023/04/14 07:26:36;;;;;;;0.03;0.03;;;9.30;99.90;;;;;;4972076;28;20019;-75
2023/04/14 07:29:02;;;;;;;0.08;0.08;;;9.40;99.90;;;;;;4974623;28;20084;-74
2023/04/14 07:31:32;;;;;;;0.03;0.03;;;9.40;99.90;;;;;;4978215;28;20371;-76
2023/04/14 07:33:58;;;;;;;0.08;0.08;;;9.50;99.90;;;;;;4974039;28;20030;-73
2023/04/14 07:36:24;;;;;;;0.00;0.00;;;9.60;99.90;;;;;;4975378;28;20015;-74
2023/04/14 07:38:50;;;;;;;0.10;0.10;;;9.60;99.90;;;;;;4973465;28;20073;-75
2023/04/14 07:41:17;;;;;;;0.00;0.00;;;9.70;99.90;;;;;;4972931;28;20043;-74
2023/04/14 07:43:43;;;;;;;0.10;0.10;;;9.80;99.90;;;;;;4973495;28;20031;-74
2023/04/14 07:46:08;;;;;;;0.03;0.03;;;9.70;99.90;;;;;;4977158;28;20034;-74
2023/04/14 07:48:35;;;;;;;14.13;10.85;;;9.70;99.90;;;;;;4975170;28;20497;-75
2023/04/14 07:51:03;;;;;;;0.00;0.00;;;9.80;99.90;;;;;;4952641;28;20022;-74
2023/04/14 07:53:30;;;;;;;0.00;0.00;;;9.80;99.90;;;;;;4957046;28;20035;-74
2023/04/14 07:55:56;;;;;;;0.10;0.10;;;9.80;99.90;;;;;;4976947;28;20023;-74
2023/04/14 07:58:22;;;;;;;0.00;0.00;;;9.70;99.90;;;;;;4965892;28;20495;-74
2023/04/14 08:00:48;;;;;;;0.05;0.05;;;9.20;99.90;;;;;;4964132;28;20094;-73
2023/04/14 08:03:14;;;;;;;0.10;0.10;;;9.80;99.90;;;;;;4965170;28;20453;-76
2023/04/14 08:05:40;;;;;;;0.00;0.00;;;9.90;99.90;;;;;;4972483;28;20015;-74
2023/04/14 08:08:09;;;;;;;0.00;0.00;;;11.10;99.90;;;;;;4965150;28;20466;-74
2023/04/14 08:10:36;;;;;;;0.00;0.00;;;10.00;99.90;;;;;;4966745;28;20015;-75
2023/04/14 08:13:02;;;;;;;0.10;0.10;;;10.20;99.90;;;;;;4947355;28;20109;-74
2023/04/14 08:15:28;;;;;;;0.00;0.00;;;10.20;99.90;;;;;;4965343;28;20326;-74
2023/04/14 08:17:53;;;;;;;0.00;0.00;;;10.50;99.90;;;;;;4963066;28;20232;-75
2023/04/14 08:20:19;;;;;;;0.00;0.00;;;10.80;99.90;;;;;;4964593;28;20129;-74
2023/04/14 08:22:45;;;;;;;0.08;0.08;;;11.00;99.90;;;;;;4966222;28;20042;-72
2023/04/14 08:25:11;;;;;;;0.10;0.10;;;11.10;99.90;;;;;;4963929;28;20228;-73
2023/04/14 08:27:37;;;;;;;0.00;0.00;;;11.30;99.90;;;;;;4965346;28;20414;-75
2023/04/14 08:30:04;;;;;;;0.10;0.10;;;11.40;99.90;;;;;;4972815;28;20029;-73
2023/04/14 08:32:30;;;;;;;0.10;0.10;;;11.30;99.90;;;;;;4971268;28;20027;-73
2023/04/14 08:34:56;;;;;;;0.03;0.03;;;11.50;99.90;;;;;;4969620;28;20073;-73
2023/04/14 08:37:22;;;;;;;0.10;0.10;;;11.60;99.90;;;;;;4972357;28;20457;-73
2023/04/14 08:39:48;;;;;;;0.10;0.10;;;11.70;99.90;;;;;;4976936;28;20113;-73
2023/04/14 08:42:19;;;;;;;0.10;0.10;;;11.60;99.90;;;;;;4969794;28;20517;-75
2023/04/14 08:44:46;;;;;;;0.10;0.10;;;11.60;99.90;;;;;;4955829;28;20019;-73
2023/04/14 08:47:13;;;;;;;0.00;0.00;;;11.70;99.90;;;;;;4970568;28;20030;-76
2023/04/14 08:49:42;;;;;;;0.10;0.10;;;11.70;99.90;;;;;;4955892;28;20026;-74
2023/04/14 08:52:13;;;;;;;3.40;3.30;;;12.00;99.90;;;;;;4963195;28;20181;-73
2023/04/14 08:54:40;;;;;;;0.10;0.10;;;12.20;99.90;;;;;;4965348;28;20086;-72
2023/04/14 08:57:09;;;;;;;0.10;0.10;;;12.20;99.90;;;;;;4969386;28;20031;-73
2023/04/14 08:59:35;;;;;;;0.10;0.10;;;12.50;99.60;;;;;;4963966;28;20015;-74
2023/04/14 09:02:05;;;;;;;0.00;0.00;;;12.60;98.30;;;;;;4962516;28;20446;-73
2023/04/14 09:04:32;;;;;;;0.10;0.10;;;12.90;98.00;;;;;;4960469;28;20152;-74
2023/04/14 09:06:58;;;;;;;0.10;0.10;;;13.00;94.70;;;;;;4942142;28;20035;-75
2023/04/14 09:09:24;;;;;;;0.15;0.15;;;13.00;92.70;;;;;;4960154;28;20026;-74
2023/04/14 09:11:51;;;;;;;0.10;0.10;;;12.80;95.70;;;;;;4944169;28;20038;-74
2023/04/14 09:14:17;;;;;;;0.10;0.10;;;13.10;93.20;;;;;;4961082;28;20019;-74
2023/04/14 09:16:44;;;;;;;0.10;0.10;;;13.20;93.80;;;;;;4959429;28;20038;-76
2023/04/14 09:19:10;;;;;;;0.10;0.10;;;13.20;88.50;;;;;;4960458;28;20039;-75
2023/04/14 09:21:36;;;;;;;0.10;0.10;;;13.30;86.40;;;;;;4944333;28;20575;-75
2023/04/14 09:24:03;;;;;;;0.10;0.10;;;13.30;84.70;;;;;;4960122;28;20019;-74
2023/04/14 09:26:28;;;;;;;0.20;0.20;;;13.40;85.00;;;;;;4960147;28;20753;-74
2023/04/14 09:28:54;;;;;;;0.10;0.10;;;13.60;81.30;;;;;;4960919;28;20090;-75
2023/04/14 09:31:20;;;;;;;0.10;0.10;;;13.80;77.90;;;;;;4960172;28;20033;-76
2023/04/14 09:33:49;;;;;;;0.10;0.10;;;14.10;79.60;;;;;;4943486;28;20031;-80
2023/04/14 09:36:22;;;;;;;0.10;0.10;;;14.20;79.20;;;;;;4959953;28;20090;-78
2023/04/14 09:38:50;;;;;;;0.10;0.10;;;14.40;81.80;;;;;;4962541;28;20031;-78
2023/04/14 09:41:17;;;;;;;0.10;0.10;;;14.10;81.60;;;;;;4962686;28;20039;-74
2023/04/14 09:43:44;;;;;;;0.10;0.10;;;14.00;80.70;;;;;;4962396;28;20113;-72
2023/04/14 09:46:11;;;;;;;0.10;0.10;;;14.30;81.90;;;;;;4961899;28;20505;-72
2023/04/14 09:48:55;;;;;;;0.10;0.10;;;14.30;81.00;;;;;;4961802;28;20031;-72
2023/04/14 09:51:23;;;;;;;0.20;0.20;;;14.40;76.20;;;;;;4944188;28;20035;-75
2023/04/14 09:53:51;;;;;;;0.40;0.40;;;14.40;75.70;;;;;;4961976;28;20030;-72
2023/04/14 09:56:17;;;;;;;0.10;0.10;;;14.30;72.10;;;;;;4961630;28;20528;-75
2023/04/14 09:58:44;;;;;;;0.15;0.15;;;14.30;75.00;;;;;;4961920;28;20027;-73
2023/04/14 10:01:20;;;;;;;0.10;0.10;;;14.10;72.30;;;;;;4961261;28;20022;-74
2023/04/14 10:03:49;;;;;;;0.10;0.10;;;14.00;77.30;;;;;;4962111;28;20015;-73
2023/04/14 10:06:21;;;;;;;0.20;0.20;;;14.20;75.90;;;;;;4961493;28;20556;-73
2023/04/14 10:08:48;;;;;;;0.20;0.20;;;14.00;72.20;;;;;;4961806;28;20027;-76
2023/04/14 10:11:15;;;;;;;0.15;0.15;;;13.60;77.40;;;;;;4961694;28;20019;-77
2023/04/14 10:13:41;;;;;;;0.10;0.10;;;13.70;76.80;;;;;;4962883;28;20154;-78
2023/04/14 10:16:08;;;;;;;0.20;0.20;;;13.70;75.60;;;;;;4961724;28;20019;-75
2023/04/14 10:18:34;;;;;;;0.10;0.10;;;14.10;77.40;;;;;;4961571;28;20018;-72
2023/04/14 10:21:01;;;;;;;0.20;0.20;;;14.30;76.50;;;;;;4961850;28;20045;-73
2023/04/14 10:23:27;;;;;;;0.10;0.10;;;14.60;73.90;;;;;;4944578;28;20026;-73
2023/04/14 10:25:55;;;;;;;0.10;0.10;;;14.80;75.10;;;;;;4943942;28;20038;-74
2023/04/14 10:28:22;;;;;;;0.10;0.10;;;15.00;75.10;;;;;;4961509;28;20022;-72
2023/04/14 10:30:50;;;;;;;0.10;0.10;;;15.00;72.90;;;;;;4961397;28;20053;-73
2023/04/14 10:33:17;;;;;;;0.10;0.10;;;15.00;73.10;;;;;;4961642;28;20047;-73
2023/04/14 10:35:47;;;;;;;0.10;0.10;;;15.10;72.50;;;;;;4961852;28;20034;-77
2023/04/14 10:38:13;;;;;;;0.20;0.20;;;15.20;71.20;;;;;;4961692;28;20026;-75
2023/04/14 10:40:46;;;;;;;0.10;0.10;;;15.00;74.60;;;;;;4961552;28;20054;-78
2023/04/14 10:43:12;;;;;;;0.10;0.10;;;15.20;71.60;;;;;;4961053;28;20022;-72
2023/04/14 10:45:57;;;;;;;0.10;0.10;;;15.00;72.00;;;;;;4960736;28;20027;-72
2023/04/14 10:48:31;;;;;;;0.10;0.10;;;14.90;72.50;;;;;;4960451;28;20062;-72
2023/04/14 10:51:08;;;;;;;0.10;0.10;;;14.60;70.90;;;;;;4960590;28;20074;-71
2023/04/14 10:53:54;;;;;;;0.10;0.10;;;14.40;71.10;;;;;;4961054;28;20367;-72
2023/04/14 10:56:21;;;;;;;0.10;0.10;;;13.90;71.30;;;;;;4960435;28;20019;-75
2023/04/14 10:58:57;;;;;;;0.10;0.10;;;13.80;73.60;;;;;;4960757;28;20593;-76
2023/04/14 11:01:30;;;;;;;0.15;0.15;;;13.80;75.40;;;;;;4961013;28;20084;-74
2023/04/14 11:04:21;;;;;;;0.10;0.10;;;12.20;73.10;;;;;;4961123;28;20030;-74
2023/04/14 11:06:47;;;;;;;0.20;0.20;;;13.30;78.10;;;;;;4961330;28;20011;-74
2023/04/14 11:09:30;;;;;;;0.20;0.20;;;13.20;80.60;;;;;;4960612;28;20026;-74
2023/04/14 11:12:21;;;;;;;0.10;0.10;;;13.60;81.90;;;;;;4960706;28;20069;-75
2023/04/14 11:14:47;;;;;;;0.20;0.20;;;13.20;92.40;;;;;;4960725;28;20090;-77
2023/04/14 11:17:20;;;;;;;0.10;0.10;;;13.10;95.20;;;;;;4962248;28;20035;-81
2023/04/14 11:19:46;;;;;;;0.10;0.10;;;12.50;94.30;;;;;;4961963;28;20050;-75
2023/04/14 11:22:12;;;;;;;0.10;0.10;;;12.30;97.80;;;;;;4967403;28;20090;-75
2023/04/14 11:24:39;;;;;;;0.20;0.20;;;12.10;99.90;;;;;;4961601;28;20713;-72
2023/04/14 11:27:09;;;;;;;0.10;0.10;;;12.00;99.90;;;;;;4961719;28;20047;-75
2023/04/14 11:29:35;;;;;;;0.10;0.10;;;11.80;99.90;;;;;;4962324;28;20666;-75
2023/04/14 11:32:02;;;;;;;0.10;0.10;;;11.60;99.90;;;;;;4961557;28;20031;-74
2023/04/14 11:34:28;;;;;;;0.10;0.10;;;11.40;99.90;;;;;;4961790;28;20027;-78
2023/04/14 11:36:55;;;;;;;0.10;0.10;;;11.10;99.90;;;;;;4962042;28;20026;-76
2023/04/14 11:39:22;;;;;;;0.10;0.10;;;10.90;99.90;;;;;;4962409;28;20023;-76
2023/04/14 11:41:50;;;;;;;0.00;0.00;;;10.50;99.90;;;;;;4961778;28;20117;-74
2023/04/14 11:44:18;;;;;;;0.10;0.10;;;10.50;99.90;;;;;;4963141;28;20019;-74
2023/04/14 11:46:45;;;;;;;0.10;0.10;;;10.40;99.90;;;;;;4964758;28;20019;-75
2023/04/14 11:49:11;;;;;;;0.00;0.00;;;10.40;99.90;;;;;;4962136;28;20030;-75
2023/04/14 11:51:37;;;;;;;0.10;0.10;;;10.60;99.90;;;;;;4962887;28;20026;-75
2023/04/14 11:54:04;;;;;;;0.10;0.10;;;10.70;99.90;;;;;;4945912;28;20030;-77
2023/04/14 11:56:30;;;;;;;0.10;0.10;;;10.60;99.90;;;;;;4964224;28;20110;-75
2023/04/14 11:59:05;;;;;;;0.10;0.10;;;11.40;99.90;;;;;;4962468;28;20110;-75
2023/04/14 12:01:31;;;;;;;0.10;0.10;;;11.20;99.90;;;;;;4961446;28;20031;-78
2023/04/14 12:03:57;;;;;;;0.10;0.10;;;11.50;99.90;;;;;;4961483;28;20584;-78
2023/04/14 12:06:26;;;;;;;0.10;0.10;;;11.20;99.90;;;;;;4943999;28;20225;-77
2023/04/14 12:08:55;;;;;;;0.10;0.10;;;11.40;99.90;;;;;;4961204;28;20049;-74
2023/04/14 12:11:22;;;;;;;0.10;0.10;;;11.50;99.90;;;;;;4944462;28;20038;-75
2023/04/14 12:13:49;;;;;;;0.10;0.10;;;11.70;99.90;;;;;;4945882;28;20437;-76
2023/04/14 12:16:16;;;;;;;0.20;0.20;;;11.30;99.90;;;;;;4964772;28;20051;-74
2023/04/14 12:18:43;;;;;;;0.10;0.10;;;11.20;99.90;;;;;;4964031;28;20042;-80
2023/04/14 12:21:09;;;;;;;0.10;0.10;;;11.10;99.90;;;;;;4964171;28;20019;-80
2023/04/14 12:23:36;;;;;;;0.03;0.03;;;11.00;99.90;;;;;;4963631;28;20043;-77
2023/04/14 12:26:03;;;;;;;0.10;0.10;;;;;;;;;;4964855;28;20023;-76
2023/04/14 12:28:29;;;;;;;0.10;0.10;;;10.50;99.90;;;;;;4962010;28;20031;-75
2023/04/14 12:31:02;;;;;;;0.05;0.05;;;10.40;99.90;;;;;;4962517;28;20691;-75
2023/04/14 12:33:30;;;;;;;0.10;0.10;;;9.90;99.90;;;;;;4961736;28;20018;-74
2023/04/14 12:36:12;;;;;;;0.10;0.10;;;9.50;99.90;;;;;;4961643;28;20023;-75
2023/04/14 12:38:38;;;;;;;0.10;0.10;;;9.30;99.90;;;;;;4963345;28;20108;-75
2023/04/14 12:41:04;;;;;;;0.00;0.00;;;9.10;99.90;;;;;;4964235;28;20038;-74
2023/04/14 12:43:32;;;;;;;0.00;0.00;;;8.50;99.90;;;;;;4964445;28;20037;-81
2023/04/14 12:45:58;;;;;;;0.00;0.00;;;7.70;99.90;;;;;;4966921;28;20346;-78
2023/04/14 12:48:45;;;;;;;0.10;0.10;;;7.70;99.90;;;;;;4969071;28;20097;-78
2023/04/14 12:51:13;;;;;;;0.00;0.00;;;7.30;99.90;;;;;;4971608;28;20022;-76
2023/04/14 12:53:40;;;;;;;0.10;0.10;;;7.00;99.90;;;;;;4969517;28;20019;-74
2023/04/14 12:56:14;;;;;;;0.10;0.10;;;6.70;99.90;;;;;;4944926;28;20742;-74
2023/04/14 12:58:42;;;;;;;0.10;0.10;;;6.30;99.90;;;;;;4964765;28;20494;-75
2023/04/14 13:01:10;;;;;;;0.08;0.08;;;6.20;99.90;;;;;;4964737;28;20716;-75
2023/04/14 13:03:44;;;;;;;0.10;0.10;;;6.20;99.90;;;;;;4965568;28;20035;-75